Time;durP1;ratioP1;P1;durP2;ratioP2;P2;SDS_P1;SDS_P2;PMS_P1;PMS_P2;Temp;Humidity;BMP_temperature;BMP_pressure;BME280_temperature;BME280_humidity;BME280_pressure;Samples;Min_cycle;Max_cycle;Signal;HPM_P1;HPM_P2
2021/07/15 00:02:11;;;;;;;;;15.00;12.50;;;;;;;;5004484;28;8803;-78
2021/07/15 00:04:39;;;;;;;;;17.00;15.25;;;;;;;;5005258;28;8875;-78
2021/07/15 00:07:06;;;;;;;;;15.75;12.75;;;;;;;;5005721;28;8851;-75
2021/07/15 00:09:35;;;;;;;;;8.00;8.00;;;;;;;;5009266;28;8968;-78
2021/07/15 00:12:04;;;;;;;;;11.75;10.50;;;;;;;;5004981;28;8918;-81
2021/07/15 00:14:31;;;;;;;;;12.75;12.25;;;;;;;;5005852;28;8870;-80
2021/07/15 00:16:58;;;;;;;;;12.00;12.00;;;;;;;;5006801;28;8893;-77
2021/07/15 00:19:27;;;;;;;;;10.00;10.00;;;;;;;;5003937;28;8872;-81
2021/07/15 00:21:55;;;;;;;;;11.50;11.50;;;;;;;;5012426;28;8883;-79
2021/07/15 00:24:23;;;;;;;;;17.25;14.50;;;;;;;;5012379;28;8989;-77
2021/07/15 00:26:52;;;;;;;;;11.50;11.50;;;;;;;;5008771;28;8987;-78
2021/07/15 00:29:20;;;;;;;;;14.75;14.75;;;;;;;;5011310;28;9494;-75
2021/07/15 00:31:47;;;;;;;;;14.25;13.75;;;;;;;;5003078;28;8961;-75
2021/07/15 00:34:15;;;;;;;;;16.00;16.00;;;;;;;;4993685;28;9449;-78
2021/07/15 00:36:42;;;;;;;;;13.50;13.50;;;;;;;;5004738;28;8867;-82
2021/07/15 00:39:10;;;;;;;;;14.25;10.75;;;;;;;;5007492;28;8904;-78
2021/07/15 00:41:37;;;;;;;;;14.50;14.50;;;;;;;;5005176;28;8863;-80
2021/07/15 00:44:06;;;;;;;;;16.75;16.75;;;;;;;;5004561;28;9002;-78
2021/07/15 00:46:34;;;;;;;;;19.00;17.25;;;;;;;;5005005;28;8882;-81
2021/07/15 00:49:01;;;;;;;;;15.00;15.00;;;;;;;;5012821;28;8899;-76
2021/07/15 00:51:31;;;;;;;;;9.00;9.00;;;;;;;;5006648;28;8879;-77
2021/07/15 00:53:58;;;;;;;;;11.50;11.50;;;;;;;;4995177;28;8855;-82
2021/07/15 00:56:26;;;;;;;;;14.75;12.75;;;;;;;;4994671;28;8896;-82
2021/07/15 00:58:54;;;;;;;;;15.25;15.00;;;;;;;;5009261;28;8866;-79
2021/07/15 01:01:22;;;;;;;;;13.75;12.50;;;;;;;;5006247;28;8830;-74
2021/07/15 01:03:51;;;;;;;;;13.25;13.25;;;;;;;;4992742;28;8872;-76
2021/07/15 01:06:19;;;;;;;;;8.50;8.50;;;;;;;;5006010;28;8923;-81
2021/07/15 01:08:46;;;;;;;;;12.75;12.75;;;;;;;;5013390;28;9023;-81
2021/07/15 01:11:22;;;;;;;;;14.50;13.75;;;;;;;;4992159;28;8874;-76
2021/07/15 01:13:51;;;;;;;;;17.00;15.75;;;;;;;;5008814;28;8862;-78
2021/07/15 01:16:27;;;;;;;;;13.25;13.25;;;;;;;;5007933;28;8849;-77
2021/07/15 01:19:05;;;;;;;;;12.50;12.50;;;;;;;;5010029;28;8958;-82
2021/07/15 01:22:07;;;;;;;;;11.25;9.25;;;;;;;;5010603;28;8860;-77
2021/07/15 01:25:07;;;;;;;;;15.00;15.00;;;;;;;;4911926;29;8912;-81
2021/07/15 01:28:00;;;;;;;;;17.00;15.00;;;;;;;;4892920;29;9010;-80
2021/07/15 01:30:33;;;;;;;;;17.00;17.00;;;;;;;;4985388;28;9620;-77
2021/07/15 01:33:06;;;;;;;;;13.25;13.25;;;;;;;;4990490;28;8888;-81
2021/07/15 01:35:38;;;;;;;;;17.75;16.50;;;;;;;;5003121;28;8887;-76
2021/07/15 01:38:06;;;;;;;;;18.25;14.50;;;;;;;;5004161;28;9672;-79
2021/07/15 01:40:40;;;;;;;;;16.00;16.00;;;;;;;;5002458;28;8881;-76
2021/07/15 01:43:10;;;;;;;;;14.75;14.75;;;;;;;;5003804;28;8872;-79
2021/07/15 01:45:40;;;;;;;;;14.00;14.00;;;;;;;;5002596;28;8905;-82
2021/07/15 01:48:09;;;;;;;;;13.00;13.00;;;;;;;;5004162;28;8889;-77
2021/07/15 01:50:37;;;;;;;;;16.00;16.00;;;;;;;;5002662;28;8869;-80
2021/07/15 01:53:04;;;;;;;;;15.25;13.50;;;;;;;;5002932;28;8859;-79
2021/07/15 01:55:32;;;;;;;;;19.25;14.00;;;;;;;;5002820;28;9676;-76
2021/07/15 01:57:59;;;;;;;;;18.00;16.00;;;;;;;;5001807;28;9002;-77
2021/07/15 02:00:27;;;;;;;;;14.75;14.75;;;;;;;;5001785;28;9601;-78
2021/07/15 02:02:56;;;;;;;;;19.75;19.75;;;;;;;;5002723;28;8894;-82
2021/07/15 02:05:24;;;;;;;;;14.50;14.50;;;;;;;;5002260;28;8858;-79
2021/07/15 02:07:52;;;;;;;;;16.00;16.00;;;;;;;;4998423;28;8857;-76
2021/07/15 02:10:23;;;;;;;;;13.75;13.75;;;;;;;;5003419;28;8864;-83
2021/07/15 02:12:51;;;;;;;;;17.00;17.00;;;;;;;;5003494;28;8898;-79
2021/07/15 02:15:18;;;;;;;;;17.00;16.75;;;;;;;;5002005;28;8862;-79
2021/07/15 02:17:47;;;;;;;;;19.50;17.00;;;;;;;;5003589;28;8885;-82
2021/07/15 02:20:18;;;;;;;;;20.50;17.50;;;;;;;;5005070;28;8884;-82
2021/07/15 02:22:46;;;;;;;;;12.25;11.50;;;;;;;;5016292;28;8882;-76
2021/07/15 02:25:15;;;;;;;;;15.50;14.50;;;;;;;;5004523;28;8863;-75
2021/07/15 02:27:45;;;;;;;;;16.00;13.75;;;;;;;;4985415;28;9001;-77
2021/07/15 02:30:15;;;;;;;;;24.00;19.00;;;;;;;;5002739;28;8859;-80
2021/07/15 02:32:45;;;;;;;;;16.75;16.75;;;;;;;;5013347;28;9645;-76
2021/07/15 02:35:15;;;;;;;;;14.50;13.25;;;;;;;;5007673;28;8850;-82
2021/07/15 02:37:43;;;;;;;;;16.25;14.50;;;;;;;;5011683;28;8912;-80
2021/07/15 02:40:13;;;;;;;;;14.50;14.50;;;;;;;;5007022;28;8872;-77
2021/07/15 02:42:42;;;;;;;;;13.50;13.50;;;;;;;;5006661;28;8969;-78
2021/07/15 02:45:12;;;;;;;;;19.00;17.75;;;;;;;;5009396;28;8949;-81
2021/07/15 02:47:40;;;;;;;;;14.00;14.00;;;;;;;;5021158;28;8894;-80
2021/07/15 02:50:08;;;;;;;;;13.50;13.50;;;;;;;;5008232;28;8986;-83
2021/07/15 02:52:37;;;;;;;;;15.75;15.75;;;;;;;;5006246;28;8887;-79
2021/07/15 02:55:05;;;;;;;;;17.00;17.00;;;;;;;;5008955;28;8863;-80
2021/07/15 02:57:36;;;;;;;;;10.25;10.00;;;;;;;;5009824;28;8870;-78
2021/07/15 03:00:08;;;;;;;;;16.25;15.25;;;;;;;;5008055;28;8869;-82
2021/07/15 03:02:40;;;;;;;;;11.75;10.25;;;;;;;;5005375;28;9570;-82
2021/07/15 03:05:11;;;;;;;;;10.25;8.50;;;;;;;;5018970;28;9003;-78
2021/07/15 03:07:48;;;;;;;;;15.25;13.00;;;;;;;;5005398;28;8890;-78
2021/07/15 03:10:17;;;;;;;;;12.25;11.50;;;;;;;;4996933;28;9782;-80
2021/07/15 03:12:45;;;;;;;;;14.25;14.25;;;;;;;;5005048;28;8934;-78
2021/07/15 03:15:13;;;;;;;;;16.25;14.50;;;;;;;;5003250;28;8873;-79
2021/07/15 03:17:45;;;;;;;;;17.75;16.00;;;;;;;;5007779;28;8843;-82
2021/07/15 03:20:16;;;;;;;;;12.25;12.25;;;;;;;;5007197;28;8880;-80
2021/07/15 03:22:47;;;;;;;;;12.25;10.50;;;;;;;;5016353;28;8926;-82
2021/07/15 03:25:17;;;;;;;;;12.50;12.50;;;;;;;;5014316;28;8868;-75
2021/07/15 03:27:48;;;;;;;;;17.25;16.00;;;;;;;;5009469;28;8870;-82
2021/07/15 03:30:16;;;;;;;;;15.50;15.50;;;;;;;;5004771;28;8856;-79
2021/07/15 03:32:45;;;;;;;;;12.25;12.25;;;;;;;;5004642;28;9675;-81
2021/07/15 03:35:14;;;;;;;;;14.50;11.50;;;;;;;;5003952;28;9649;-80
2021/07/15 03:37:44;;;;;;;;;10.75;9.25;;;;;;;;5003823;28;8887;-80
2021/07/15 03:40:13;;;;;;;;;12.75;11.75;;;;;;;;5006058;28;8870;-75
2021/07/15 03:42:41;;;;;;;;;15.25;15.25;;;;;;;;5004492;28;9626;-75
2021/07/15 03:45:09;;;;;;;;;14.00;13.25;;;;;;;;5003741;28;9726;-77
2021/07/15 03:47:37;;;;;;;;;14.25;14.25;;;;;;;;5004836;28;8886;-75
2021/07/15 03:50:07;;;;;;;;;12.00;12.00;;;;;;;;5005549;28;8871;-74
2021/07/15 03:52:34;;;;;;;;;12.00;12.00;;;;;;;;5005682;28;8874;-75
2021/07/15 03:55:03;;;;;;;;;10.25;10.25;;;;;;;;5003480;28;9001;-75
2021/07/15 03:57:30;;;;;;;;;15.00;15.00;;;;;;;;5005392;28;8883;-76
2021/07/15 03:59:59;;;;;;;;;18.75;16.50;;;;;;;;5003349;28;8843;-74
2021/07/15 04:02:28;;;;;;;;;12.25;12.25;;;;;;;;5005295;28;8867;-74
2021/07/15 04:04:58;;;;;;;;;13.50;12.75;;;;;;;;4988718;28;8902;-79
2021/07/15 04:07:29;;;;;;;;;11.75;11.75;;;;;;;;5004841;28;8917;-81
2021/07/15 04:09:57;;;;;;;;;16.50;13.00;;;;;;;;5004287;28;8881;-77
2021/07/15 04:12:27;;;;;;;;;12.25;12.25;;;;;;;;5003175;28;8875;-79
2021/07/15 04:15:05;;;;;;;;;10.50;10.50;;;;;;;;5004557;28;8870;-79
2021/07/15 04:17:35;;;;;;;;;17.00;14.75;;;;;;;;5003089;28;8926;-76
2021/07/15 04:20:06;;;;;;;;;16.00;14.00;;;;;;;;5004408;28;8871;-77
2021/07/15 04:22:34;;;;;;;;;17.50;16.50;;;;;;;;5004060;28;9602;-76
2021/07/15 04:25:02;;;;;;;;;14.50;14.50;;;;;;;;5004406;28;8877;-76
2021/07/15 04:27:32;;;;;;;;;16.00;14.00;;;;;;;;5010854;28;8878;-77
2021/07/15 04:30:02;;;;;;;;;16.00;12.25;;;;;;;;5022399;28;9630;-75
2021/07/15 04:32:32;;;;;;;;;17.50;16.25;;;;;;;;5023923;28;8845;-79
2021/07/15 04:35:00;;;;;;;;;20.00;16.50;;;;;;;;5024035;28;8983;-79
2021/07/15 04:37:27;;;;;;;;;13.50;13.50;;;;;;;;5023923;28;8894;-80
2021/07/15 04:39:56;;;;;;;;;11.75;11.75;;;;;;;;5023434;28;8856;-79
2021/07/15 04:42:24;;;;;;;;;11.50;11.50;;;;;;;;5023505;28;8897;-75
2021/07/15 04:44:53;;;;;;;;;13.25;13.25;;;;;;;;5023525;28;9986;-74
2021/07/15 04:47:22;;;;;;;;;15.25;11.25;;;;;;;;5022670;28;8876;-79
2021/07/15 04:49:49;;;;;;;;;14.00;12.75;;;;;;;;5024019;28;8864;-76
2021/07/15 04:52:18;;;;;;;;;12.00;11.25;;;;;;;;5022572;28;8900;-76
2021/07/15 04:54:47;;;;;;;;;14.00;13.75;;;;;;;;5024258;28;8877;-78
2021/07/15 04:57:14;;;;;;;;;15.25;13.50;;;;;;;;5021616;28;8873;-75
2021/07/15 04:59:42;;;;;;;;;13.00;11.00;;;;;;;;5023421;28;8869;-76
2021/07/15 05:02:11;;;;;;;;;13.75;13.75;;;;;;;;5022857;28;8833;-77
2021/07/15 05:04:38;;;;;;;;;13.25;12.25;;;;;;;;5018579;28;8922;-77
2021/07/15 05:07:06;;;;;;;;;13.50;12.50;;;;;;;;5022286;28;8883;-77
2021/07/15 05:09:33;;;;;;;;;11.00;11.00;;;;;;;;5019203;28;8876;-75
2021/07/15 05:12:00;;;;;;;;;14.75;12.25;;;;;;;;5022410;28;8876;-78
2021/07/15 05:14:28;;;;;;;;;15.75;13.50;;;;;;;;5022167;28;8850;-80
2021/07/15 05:16:57;;;;;;;;;9.75;9.75;;;;;;;;5023579;28;8932;-78
2021/07/15 05:19:26;;;;;;;;;14.75;12.50;;;;;;;;5021546;28;8857;-80
2021/07/15 05:21:53;;;;;;;;;7.00;7.00;;;;;;;;5023647;28;9952;-78
2021/07/15 05:24:20;;;;;;;;;14.75;14.75;;;;;;;;5025094;28;8869;-79
2021/07/15 05:26:48;;;;;;;;;10.50;10.25;;;;;;;;5006431;28;8934;-77
2021/07/15 05:29:15;;;;;;;;;12.00;12.00;;;;;;;;5005925;28;8886;-77
2021/07/15 05:31:43;;;;;;;;;10.00;10.00;;;;;;;;5003175;28;8820;-82
2021/07/15 05:34:11;;;;;;;;;12.25;12.25;;;;;;;;5004101;28;8878;-78
2021/07/15 05:36:40;;;;;;;;;13.50;13.50;;;;;;;;5003479;28;8860;-77
2021/07/15 05:39:07;;;;;;;;;9.75;9.75;;;;;;;;5003347;28;8949;-83
2021/07/15 05:41:34;;;;;;;;;11.00;11.00;;;;;;;;5003940;28;8872;-76
2021/07/15 05:44:02;;;;;;;;;8.25;8.25;;;;;;;;5002317;28;8882;-77
2021/07/15 05:46:29;;;;;;;;;10.25;10.25;;;;;;;;5003812;28;8879;-77
2021/07/15 05:48:56;;;;;;;;;12.00;11.00;;;;;;;;5001899;28;8917;-77
2021/07/15 05:51:23;;;;;;;;;12.75;10.75;;;;;;;;5003078;28;8891;-79
2021/07/15 05:53:52;;;;;;;;;10.00;10.00;;;;;;;;5003554;28;8880;-82
2021/07/15 05:56:20;;;;;;;;;11.50;10.00;;;;;;;;5003578;28;9676;-82
2021/07/15 05:58:47;;;;;;;;;11.75;10.00;;;;;;;;5004224;28;8827;-77
2021/07/15 06:01:15;;;;;;;;;8.75;8.75;;;;;;;;5004250;28;9619;-84
2021/07/15 06:03:42;;;;;;;;;9.50;9.50;;;;;;;;5009111;28;8871;-76
2021/07/15 06:06:09;;;;;;;;;10.00;10.00;;;;;;;;5003531;28;8879;-79
2021/07/15 06:08:36;;;;;;;;;9.75;8.00;;;;;;;;5005154;28;9735;-79
2021/07/15 06:11:05;;;;;;;;;8.50;8.00;;;;;;;;5005444;28;8848;-82
2021/07/15 06:13:32;;;;;;;;;8.75;8.75;;;;;;;;5007689;28;9011;-90
2021/07/15 06:16:00;;;;;;;;;9.50;9.50;;;;;;;;5006992;28;8864;-83
2021/07/15 06:18:27;;;;;;;;;12.00;10.00;;;;;;;;5007151;28;9658;-77
2021/07/15 06:20:54;;;;;;;;;6.25;6.25;;;;;;;;5008012;28;8908;-82
2021/07/15 06:23:22;;;;;;;;;10.00;8.25;;;;;;;;5007080;28;8902;-84
2021/07/15 06:25:49;;;;;;;;;10.00;8.50;;;;;;;;5011181;28;8907;-80
2021/07/15 06:28:17;;;;;;;;;8.25;8.25;;;;;;;;5024905;28;8864;-80
2021/07/15 06:30:45;;;;;;;;;9.25;8.00;;;;;;;;5026330;28;8794;-86
2021/07/15 06:33:12;;;;;;;;;8.00;8.00;;;;;;;;5027900;28;9015;-86
2021/07/15 06:35:41;;;;;;;;;7.50;7.50;;;;;;;;5026435;28;8883;-75
2021/07/15 06:38:09;;;;;;;;;9.50;9.25;;;;;;;;5027130;28;8876;-83
2021/07/15 06:40:36;;;;;;;;;10.25;9.75;;;;;;;;5026369;28;8876;-76
2021/07/15 06:43:04;;;;;;;;;8.25;8.25;;;;;;;;5027911;28;8873;-84
2021/07/15 06:45:32;;;;;;;;;9.25;7.50;;;;;;;;5026178;28;9747;-80
2021/07/15 06:48:00;;;;;;;;;11.25;10.00;;;;;;;;5027742;28;8874;-81
2021/07/15 06:50:27;;;;;;;;;8.25;8.25;;;;;;;;5026887;28;8854;-75
2021/07/15 06:52:54;;;;;;;;;8.50;8.50;;;;;;;;5026740;28;8890;-84
2021/07/15 06:55:21;;;;;;;;;6.80;6.80;;;;;;;;5026904;28;8876;-85
2021/07/15 06:57:48;;;;;;;;;9.75;9.75;;;;;;;;5026556;28;8860;-82
2021/07/15 07:00:17;;;;;;;;;11.00;9.75;;;;;;;;5026444;28;8866;-82
2021/07/15 07:02:47;;;;;;;;;6.00;6.00;;;;;;;;5026354;28;8891;-88
2021/07/15 07:05:15;;;;;;;;;10.75;10.75;;;;;;;;5027294;28;8918;-77
2021/07/15 07:07:43;;;;;;;;;7.00;7.00;;;;;;;;5026038;28;8805;-83
2021/07/15 07:10:12;;;;;;;;;10.00;10.00;;;;;;;;5024534;28;8903;-78
2021/07/15 07:12:40;;;;;;;;;8.20;8.20;;;;;;;;5027010;28;8860;-80
2021/07/15 07:15:09;;;;;;;;;11.50;10.00;;;;;;;;5024617;28;9011;-84
2021/07/15 07:17:37;;;;;;;;;16.75;13.00;;;;;;;;5026824;28;8922;-82
2021/07/15 07:20:07;;;;;;;;;9.40;9.40;;;;;;;;5023737;28;8891;-82
2021/07/15 07:22:34;;;;;;;;;12.20;11.40;;;;;;;;5024007;28;8874;-82
2021/07/15 07:25:01;;;;;;;;;8.00;8.00;;;;;;;;5026238;28;8894;-81
2021/07/15 07:27:31;;;;;;;;;11.60;9.20;;;;;;;;5020784;28;8974;-86
2021/07/15 07:29:58;;;;;;;;;11.20;11.20;;;;;;;;5006953;28;8839;-78
2021/07/15 07:32:26;;;;;;;;;7.60;7.60;;;;;;;;5003414;28;8861;-84
2021/07/15 07:34:53;;;;;;;;;11.80;10.20;;;;;;;;5006335;28;8873;-74
2021/07/15 07:37:22;;;;;;;;;7.80;7.80;;;;;;;;5003708;28;8896;-72
2021/07/15 07:39:49;;;;;;;;;15.20;9.80;;;;;;;;5005040;28;8867;-71
2021/07/15 07:42:16;;;;;;;;;9.40;9.40;;;;;;;;5004277;28;8864;-72
2021/07/15 07:44:43;;;;;;;;;9.00;9.00;;;;;;;;5001779;28;9721;-75
2021/07/15 07:47:11;;;;;;;;;10.00;8.60;;;;;;;;5002264;28;8867;-83
2021/07/15 07:49:38;;;;;;;;;9.00;8.80;;;;;;;;5001276;28;8873;-70
2021/07/15 07:52:06;;;;;;;;;8.60;8.60;;;;;;;;5005187;28;8858;-78
2021/07/15 07:54:34;;;;;;;;;8.60;8.00;;;;;;;;5004080;28;8863;-79
2021/07/15 07:57:02;;;;;;;;;16.80;14.00;;;;;;;;5005663;28;8859;-84
2021/07/15 07:59:29;;;;;;;;;14.20;10.20;;;;;;;;5003335;28;8883;-71
2021/07/15 08:01:56;;;;;;;;;9.80;9.80;;;;;;;;5003539;28;8816;-78
2021/07/15 08:04:25;;;;;;;;;10.20;8.40;;;;;;;;5004352;28;10101;-77
2021/07/15 08:06:52;;;;;;;;;9.00;9.00;;;;;;;;5004145;28;8863;-76
2021/07/15 08:09:23;;;;;;;;;9.80;9.80;;;;;;;;5004570;28;8876;-76
2021/07/15 08:11:54;;;;;;;;;9.20;9.20;;;;;;;;5002625;28;8858;-74
2021/07/15 08:14:22;;;;;;;;;8.60;8.60;;;;;;;;5002795;28;9692;-72
2021/07/15 08:16:49;;;;;;;;;8.00;8.00;;;;;;;;5002330;28;8859;-72
2021/07/15 08:19:16;;;;;;;;;9.40;8.80;;;;;;;;5003269;28;8886;-73
2021/07/15 08:21:44;;;;;;;;;10.00;10.00;;;;;;;;5004416;28;8850;-74
2021/07/15 08:24:11;;;;;;;;;12.40;10.20;;;;;;;;5001333;28;9605;-75
2021/07/15 08:26:38;;;;;;;;;10.20;10.20;;;;;;;;5006242;28;8827;-78
2021/07/15 08:29:07;;;;;;;;;9.20;8.00;;;;;;;;5021908;28;8865;-73
2021/07/15 08:31:34;;;;;;;;;11.60;11.60;;;;;;;;5001553;28;8839;-76
2021/07/15 08:34:01;;;;;;;;;10.60;10.60;;;;;;;;5022617;28;8869;-71
2021/07/15 08:36:31;;;;;;;;;10.20;8.40;;;;;;;;5022020;28;8905;-81
2021/07/15 08:38:58;;;;;;;;;12.40;10.60;;;;;;;;5020112;28;8830;-72
2021/07/15 08:41:25;;;;;;;;;11.20;10.80;;;;;;;;5022896;28;8904;-73
2021/07/15 08:43:54;;;;;;;;;12.00;10.00;;;;;;;;5021112;28;8846;-75
2021/07/15 08:46:24;;;;;;;;;9.80;9.80;;;;;;;;5003977;28;8877;-73
2021/07/15 08:48:52;;;;;;;;;9.00;9.00;;;;;;;;5022708;28;8861;-75
2021/07/15 08:51:20;;;;;;;;;9.00;9.00;;;;;;;;5022719;28;8883;-71
2021/07/15 08:53:47;;;;;;;;;8.00;8.00;;;;;;;;5024041;28;8875;-74
2021/07/15 08:59:00;;;;;;;;;9.40;9.40;;;;;;;;5019572;28;8955;-72
2021/07/15 09:01:32;;;;;;;;;11.80;10.00;;;;;;;;5023620;28;8851;-74
2021/07/15 09:03:59;;;;;;;;;9.40;9.40;;;;;;;;5024680;28;8878;-76
2021/07/15 09:06:27;;;;;;;;;7.60;7.60;;;;;;;;5026750;28;8910;-77
2021/07/15 09:08:54;;;;;;;;;8.60;8.60;;;;;;;;5023929;28;8863;-82
2021/07/15 09:11:22;;;;;;;;;8.20;8.20;;;;;;;;5023480;28;8868;-75
2021/07/15 09:13:50;;;;;;;;;8.40;6.80;;;;;;;;5018941;28;8924;-79
2021/07/15 09:16:18;;;;;;;;;9.80;8.00;;;;;;;;5017417;28;8889;-80
2021/07/15 09:19:07;;;;;;;;;8.20;7.60;;;;;;;;5014727;28;9663;-76
2021/07/15 09:21:36;;;;;;;;;8.00;8.00;;;;;;;;5020649;28;8930;-78
2021/07/15 09:24:25;;;;;;;;;5.00;5.00;;;;;;;;4994226;28;8878;-75
2021/07/15 09:26:52;;;;;;;;;6.20;6.00;;;;;;;;5023300;28;8857;-72
2021/07/15 09:29:20;;;;;;;;;8.60;8.60;;;;;;;;5023292;28;8953;-72
2021/07/15 09:31:58;;;;;;;;;7.60;7.60;;;;;;;;5023268;28;8822;-73
2021/07/15 09:34:28;;;;;;;;;8.00;8.00;;;;;;;;5023519;28;8865;-72
2021/07/15 09:36:56;;;;;;;;;9.60;9.60;;;;;;;;5024277;28;8897;-75
2021/07/15 09:39:25;;;;;;;;;12.00;9.20;;;;;;;;5009737;28;8850;-73
2021/07/15 09:42:11;;;;;;;;;10.20;10.20;;;;;;;;5022915;28;8862;-75
2021/07/15 09:44:38;;;;;;;;;8.20;8.20;;;;;;;;5025935;28;9011;-74
2021/07/15 09:47:06;;;;;;;;;11.40;9.80;;;;;;;;5025311;28;8911;-76
2021/07/15 09:49:36;;;;;;;;;9.00;7.80;;;;;;;;5021109;28;8880;-75
2021/07/15 09:52:04;;;;;;;;;5.40;4.60;;;;;;;;5026477;28;8876;-73
2021/07/15 09:54:33;;;;;;;;;9.20;7.80;;;;;;;;5027939;28;8923;-75
2021/07/15 09:57:00;;;;;;;;;7.60;7.60;;;;;;;;5027296;28;9625;-74
2021/07/15 09:59:27;;;;;;;;;10.40;8.80;;;;;;;;5026635;28;8863;-76
2021/07/15 10:01:55;;;;;;;;;6.80;6.80;;;;;;;;5027085;28;8789;-74
2021/07/15 10:04:24;;;;;;;;;10.20;10.20;;;;;;;;5026367;28;8883;-73
2021/07/15 10:06:54;;;;;;;;;6.40;6.40;;;;;;;;5028096;28;8983;-76
2021/07/15 10:09:26;;;;;;;;;7.20;7.20;;;;;;;;5026230;28;9627;-73
2021/07/15 10:11:56;;;;;;;;;9.20;9.00;;;;;;;;5027851;28;8882;-74
2021/07/15 10:14:33;;;;;;;;;8.40;8.40;;;;;;;;5026770;28;8864;-74
2021/07/15 10:17:00;;;;;;;;;8.40;7.00;;;;;;;;5022956;28;8935;-73
2021/07/15 10:19:27;;;;;;;;;7.80;7.80;;;;;;;;5027059;28;8955;-74
2021/07/15 10:22:00;;;;;;;;;9.40;9.40;;;;;;;;5025651;28;9046;-74
2021/07/15 10:24:28;;;;;;;;;8.60;8.60;;;;;;;;5027538;28;8866;-75
2021/07/15 10:26:56;;;;;;;;;8.80;8.80;;;;;;;;5025399;28;8915;-75
2021/07/15 10:29:24;;;;;;;;;8.00;8.00;;;;;;;;5027420;28;9839;-74
2021/07/15 10:31:53;;;;;;;;;8.00;8.00;;;;;;;;5025858;28;8777;-75
2021/07/15 10:34:21;;;;;;;;;6.40;6.40;;;;;;;;5026395;28;8910;-74
2021/07/15 10:36:53;;;;;;;;;6.60;6.60;;;;;;;;5017658;28;8876;-75
2021/07/15 10:39:25;;;;;;;;;8.80;6.80;;;;;;;;5025643;28;8872;-73
2021/07/15 10:41:55;;;;;;;;;8.00;6.60;;;;;;;;5010773;28;8877;-75
2021/07/15 10:44:22;;;;;;;;;8.60;8.60;;;;;;;;5005399;28;9692;-80
2021/07/15 10:46:51;;;;;;;;;11.60;10.20;;;;;;;;5025138;28;8906;-75
2021/07/15 10:49:19;;;;;;;;;5.80;5.80;;;;;;;;5012248;28;8851;-75
2021/07/15 10:51:48;;;;;;;;;9.20;8.00;;;;;;;;5009185;28;8890;-76
2021/07/15 10:54:17;;;;;;;;;7.00;7.00;;;;;;;;5013454;28;9001;-74
2021/07/15 10:56:47;;;;;;;;;7.00;7.00;;;;;;;;5015289;28;8870;-73
2021/07/15 10:59:28;;;;;;;;;7.60;6.40;;;;;;;;5020320;28;9625;-77
2021/07/15 11:01:59;;;;;;;;;7.40;7.20;;;;;;;;5014453;28;8830;-76
2021/07/15 11:04:37;;;;;;;;;6.80;6.80;;;;;;;;5006204;28;8883;-76
2021/07/15 11:07:29;;;;;;;;;10.00;8.40;;;;;;;;5008215;28;8889;-74
2021/07/15 11:10:15;;;;;;;;;7.00;7.00;;;;;;;;5002069;28;8887;-75
2021/07/15 11:12:55;;;;;;;;;7.80;7.80;;;;;;;;5006412;28;8879;-79
2021/07/15 11:15:23;;;;;;;;;6.40;6.40;;;;;;;;5010161;28;9006;-78
2021/07/15 11:17:51;;;;;;;;;7.00;7.00;;;;;;;;5004780;28;8862;-75
2021/07/15 11:20:27;;;;;;;;;6.00;6.00;;;;;;;;5000258;28;8867;-77
2021/07/15 11:22:57;;;;;;;;;7.80;7.80;;;;;;;;5009486;28;8896;-78
2021/07/15 11:25:39;;;;;;;;;5.60;5.60;;;;;;;;5007062;28;9696;-77
2021/07/15 11:28:23;;;;;;;;;8.80;8.00;;;;;;;;5021383;28;8890;-78
2021/07/15 11:30:52;;;;;;;;;9.00;5.40;;;;;;;;5016914;28;8858;-75
2021/07/15 11:33:48;;;;;;;;;6.00;5.00;;;;;;;;5026419;28;8849;-76
2021/07/15 11:36:30;;;;;;;;;4.80;4.80;;;;;;;;4994332;28;8983;-78
2021/07/15 11:39:00;;;;;;;;;6.20;6.00;;;;;;;;5025544;28;8846;-76
2021/07/15 11:41:43;;;;;;;;;5.20;5.20;;;;;;;;5026841;28;8842;-78
2021/07/15 11:44:14;;;;;;;;;7.60;6.00;;;;;;;;5024321;28;8869;-75
2021/07/15 11:46:42;;;;;;;;;4.80;4.80;;;;;;;;5025966;28;9022;-75
2021/07/15 11:49:22;;;;;;;;;6.40;6.40;;;;;;;;5024303;28;8868;-75
2021/07/15 11:52:01;;;;;;;;;5.00;5.00;;;;;;;;5025298;28;8868;-77
2021/07/15 11:54:48;;;;;;;;;5.00;4.00;;;;;;;;5025419;28;8852;-75
2021/07/15 11:57:30;;;;;;;;;3.80;3.80;;;;;;;;5011508;28;8876;-75
2021/07/15 12:00:14;;;;;;;;;5.00;5.00;;;;;;;;5025570;28;8880;-77
2021/07/15 12:02:46;;;;;;;;;4.80;4.80;;;;;;;;5024570;28;8932;-76
2021/07/15 12:05:19;;;;;;;;;4.00;4.00;;;;;;;;5025520;28;8877;-76
2021/07/15 12:07:49;;;;;;;;;1.40;1.40;;;;;;;;5025003;28;8882;-77
2021/07/15 12:10:25;;;;;;;;;4.60;4.60;;;;;;;;5024459;28;8890;-76
2021/07/15 12:12:52;;;;;;;;;6.80;6.80;;;;;;;;5025513;28;8917;-80
2021/07/15 12:15:24;;;;;;;;;4.00;4.00;;;;;;;;5023758;28;8864;-77
2021/07/15 12:17:54;;;;;;;;;5.40;4.20;;;;;;;;5025445;28;8884;-82
2021/07/15 12:20:23;;;;;;;;;4.00;3.00;;;;;;;;5024329;28;8918;-80
2021/07/15 12:22:57;;;;;;;;;5.20;5.20;;;;;;;;5024606;28;8864;-78
2021/07/15 12:25:27;;;;;;;;;2.80;2.80;;;;;;;;5025350;28;8848;-76
2021/07/15 12:27:56;;;;;;;;;4.00;4.00;;;;;;;;5013132;28;8881;-76
2021/07/15 12:30:42;;;;;;;;;4.00;4.00;;;;;;;;5023999;28;8827;-79
2021/07/15 12:33:10;;;;;;;;;4.60;4.00;;;;;;;;5022150;28;9632;-76
2021/07/15 12:35:38;;;;;;;;;4.00;4.00;;;;;;;;5024935;28;8900;-76
2021/07/15 12:38:20;;;;;;;;;4.40;4.40;;;;;;;;5024349;28;9506;-76
2021/07/15 12:40:47;;;;;;;;;6.00;6.00;;;;;;;;5023572;28;8888;-76
2021/07/15 12:43:17;;;;;;;;;4.40;4.40;;;;;;;;5024688;28;8996;-76
2021/07/15 12:45:47;;;;;;;;;6.00;6.00;;;;;;;;5023072;28;8850;-75
2021/07/15 12:48:16;;;;;;;;;5.20;5.20;;;;;;;;5024755;28;8880;-77
2021/07/15 12:50:44;;;;;;;;;5.40;4.60;;;;;;;;5022754;28;8955;-75
2021/07/15 12:53:17;;;;;;;;;5.80;5.80;;;;;;;;5024203;28;8937;-77
2021/07/15 12:55:45;;;;;;;;;5.00;5.00;;;;;;;;5024564;28;8874;-76
2021/07/15 12:58:13;;;;;;;;;4.80;4.80;;;;;;;;5023276;28;8880;-76
2021/07/15 13:00:42;;;;;;;;;5.20;5.20;;;;;;;;5023659;28;8839;-76
2021/07/15 13:03:10;;;;;;;;;4.00;4.00;;;;;;;;5023243;28;8889;-76
2021/07/15 13:05:39;;;;;;;;;4.60;4.60;;;;;;;;5024350;28;8991;-75
2021/07/15 13:08:09;;;;;;;;;5.20;4.00;;;;;;;;5023558;28;8911;-75
2021/07/15 13:16:03;;;;;;;;;4.00;4.00;;;;;;;;5022929;28;8842;-75
2021/07/15 13:18:31;;;;;;;;;4.40;4.40;;;;;;;;5022772;28;8877;-77
2021/07/15 13:20:59;;;;;;;;;4.00;4.00;;;;;;;;5022529;28;8954;-76
2021/07/15 13:23:26;;;;;;;;;4.00;3.00;;;;;;;;5023723;28;8900;-76
2021/07/15 13:25:54;;;;;;;;;3.20;3.20;;;;;;;;5023728;28;8845;-77
2021/07/15 13:28:23;;;;;;;;;3.60;3.60;;;;;;;;5017800;28;8891;-76
2021/07/15 13:30:51;;;;;;;;;4.80;4.80;;;;;;;;5011224;28;8922;-77
2021/07/15 13:33:21;;;;;;;;;4.80;4.80;;;;;;;;5009064;28;9036;-75
2021/07/15 13:35:51;;;;;;;;;5.00;5.00;;;;;;;;5010717;28;8879;-77
2021/07/15 13:38:20;;;;;;;;;4.20;4.20;;;;;;;;5007529;28;8995;-77
2021/07/15 13:40:47;;;;;;;;;4.60;4.60;;;;;;;;5023083;28;9030;-76
2021/07/15 13:43:18;;;;;;;;;5.20;5.20;;;;;;;;5015406;28;8854;-76
2021/07/15 13:45:47;;;;;;;;;4.80;4.80;;;;;;;;5017729;28;8880;-76
2021/07/15 13:48:15;;;;;;;;;4.20;3.20;;;;;;;;5024223;28;8983;-77
2021/07/15 13:50:43;;;;;;;;;4.00;4.00;;;;;;;;5022142;28;8873;-76
2021/07/15 13:53:15;;;;;;;;;4.80;4.80;;;;;;;;5014712;28;8972;-76
2021/07/15 13:55:45;;;;;;;;;5.80;5.80;;;;;;;;5006326;28;8869;-76
2021/07/15 13:58:16;;;;;;;;;5.00;5.00;;;;;;;;5023435;28;8898;-77
2021/07/15 14:00:49;;;;;;;;;7.40;4.60;;;;;;;;5004542;28;8792;-75
2021/07/15 14:03:18;;;;;;;;;4.00;4.00;;;;;;;;5015348;28;9665;-76
2021/07/15 14:05:47;;;;;;;;;5.60;3.80;;;;;;;;5023859;28;8904;-78
2021/07/15 14:08:16;;;;;;;;;5.20;3.40;;;;;;;;5023128;28;8995;-76
2021/07/15 14:10:44;;;;;;;;;6.20;4.40;;;;;;;;5023504;28;8889;-76
2021/07/15 14:13:12;;;;;;;;;6.00;6.00;;;;;;;;5022449;28;8894;-75
2021/07/15 14:15:41;;;;;;;;;5.40;5.40;;;;;;;;5007992;28;8873;-77
2021/07/15 14:18:10;;;;;;;;;4.00;4.00;;;;;;;;4999329;28;8891;-76
2021/07/15 14:20:39;;;;;;;;;7.60;6.00;;;;;;;;5010548;28;8888;-77
2021/07/15 14:23:08;;;;;;;;;5.60;5.60;;;;;;;;5021283;28;8907;-77
2021/07/15 14:25:37;;;;;;;;;6.80;6.80;;;;;;;;5002357;28;8905;-76
2021/07/15 14:28:05;;;;;;;;;5.20;5.20;;;;;;;;5015542;28;8892;-76
2021/07/15 14:30:33;;;;;;;;;6.40;6.40;;;;;;;;5023607;28;8925;-77
2021/07/15 14:33:01;;;;;;;;;4.40;4.40;;;;;;;;5010032;28;9645;-77
2021/07/15 14:35:30;;;;;;;;;8.20;7.00;;;;;;;;5006525;28;8862;-77
2021/07/15 14:37:57;;;;;;;;;6.80;6.80;;;;;;;;5006564;28;8882;-76
2021/07/15 14:40:25;;;;;;;;;6.60;6.60;;;;;;;;5018041;28;8896;-76
2021/07/15 14:42:54;;;;;;;;;6.00;6.00;;;;;;;;5025589;28;8872;-76
2021/07/15 14:45:22;;;;;;;;;7.20;7.20;;;;;;;;5026568;28;8904;-75
2021/07/15 14:47:49;;;;;;;;;8.00;7.40;;;;;;;;5025213;28;8877;-77
2021/07/15 14:50:18;;;;;;;;;11.00;7.60;;;;;;;;5026522;28;9745;-76
2021/07/15 14:52:46;;;;;;;;;5.80;5.60;;;;;;;;5007283;28;8859;-76
2021/07/15 14:55:14;;;;;;;;;11.00;8.00;;;;;;;;5019110;28;8857;-78
2021/07/15 14:57:42;;;;;;;;;7.00;7.00;;;;;;;;5027834;28;8888;-78
2021/07/15 15:00:13;;;;;;;;;8.80;8.80;;;;;;;;5026614;28;8868;-81
2021/07/15 15:02:40;;;;;;;;;8.60;8.60;;;;;;;;5017127;28;8958;-81
2021/07/15 15:05:09;;;;;;;;;8.20;8.20;;;;;;;;5024711;28;8911;-78
2021/07/15 15:07:37;;;;;;;;;7.20;5.80;;;;;;;;5007220;28;8879;-81